TAF KITH
KITH 280533Z 2806/2906 VRB03KT 6SM -SN BKN035 OVC050 TEMPO 2806/2807 2SM -SN BKN025 FM280700 VRB03KT 1SM -SN BR OVC015 FM280900 16004KT 3SM -SN BR OVC015 FM282100 17005KT 5SM -SHSN BR OVC009=
METAR KITH
WC KITH
WS KITH
WV KITH